createdAt,value
2017-08-21T00:01:41.203Z,2.67
2017-08-21T00:04:08.378Z,2.63
2017-08-21T00:06:35.859Z,2.63
2017-08-21T00:09:02.228Z,2.80
2017-08-21T00:11:28.761Z,2.70
2017-08-21T00:13:55.082Z,2.63
2017-08-21T00:16:21.556Z,2.30
2017-08-21T00:18:48.811Z,2.67
2017-08-21T00:21:15.992Z,2.80
2017-08-21T00:23:42.352Z,3.13
2017-08-21T00:26:08.816Z,3.10
2017-08-21T00:28:35.956Z,3.00
2017-08-21T00:31:02.413Z,2.60
2017-08-21T00:33:28.843Z,2.50
2017-08-21T00:35:56.097Z,2.87
2017-08-21T00:38:22.451Z,2.77
2017-08-21T00:40:49.025Z,2.30
2017-08-21T00:43:15.719Z,2.40
2017-08-21T00:45:42.213Z,2.43
2017-08-21T00:48:08.607Z,2.30
2017-08-21T00:50:34.992Z,2.00
2017-08-21T00:53:02.094Z,2.97
2017-08-21T00:55:28.605Z,2.17
2017-08-21T00:57:55.039Z,2.83
2017-08-21T01:00:21.549Z,2.87
2017-08-21T01:02:48.924Z,2.40
2017-08-21T01:05:15.473Z,2.87
2017-08-21T01:07:41.888Z,2.70
2017-08-21T01:10:08.213Z,2.70
2017-08-21T01:12:34.635Z,2.50
2017-08-21T01:15:01.854Z,2.53
2017-08-21T01:17:28.237Z,2.27
2017-08-21T01:19:54.626Z,2.60
2017-08-21T01:22:20.943Z,2.40
2017-08-21T01:24:47.360Z,2.80
2017-08-21T01:27:13.746Z,2.67
2017-08-21T01:29:41.033Z,2.17
2017-08-21T01:32:51.056Z,2.43
2017-08-21T01:35:17.380Z,2.37
2017-08-21T01:37:43.752Z,2.47
2017-08-21T01:40:10.068Z,2.80
2017-08-21T01:42:36.410Z,2.40
2017-08-21T01:45:02.813Z,2.57
2017-08-21T01:47:29.129Z,2.17
2017-08-21T01:49:55.496Z,2.17
2017-08-21T01:52:21.880Z,2.67
2017-08-21T01:54:48.260Z,2.47
2017-08-21T01:57:14.574Z,2.40
2017-08-21T01:59:40.936Z,2.53
2017-08-21T02:02:07.292Z,2.67
2017-08-21T02:04:33.631Z,2.00
2017-08-21T02:06:59.991Z,2.33
2017-08-21T02:09:26.359Z,2.73
2017-08-21T02:11:52.687Z,2.40
2017-08-21T02:14:19.048Z,2.77
2017-08-21T02:16:45.611Z,2.30
2017-08-21T02:19:11.981Z,2.40
2017-08-21T02:21:38.330Z,2.87
2017-08-21T02:24:04.728Z,2.57
2017-08-21T02:26:31.065Z,3.63
2017-08-21T02:28:57.421Z,2.33
2017-08-21T02:31:23.759Z,2.57
2017-08-21T02:33:50.200Z,2.97
2017-08-21T02:36:16.560Z,3.10
2017-08-21T02:38:44.928Z,2.33
2017-08-21T02:41:11.289Z,2.43
2017-08-21T02:43:37.638Z,2.53
2017-08-21T02:46:04.002Z,2.47
2017-08-21T02:48:30.353Z,2.93
2017-08-21T02:50:56.944Z,2.40
2017-08-21T02:53:23.256Z,2.50
2017-08-21T02:55:49.569Z,2.60
2017-08-21T02:58:15.940Z,3.07
2017-08-21T03:00:42.309Z,2.73
2017-08-21T03:03:08.632Z,3.20
2017-08-21T03:05:35.009Z,2.90
2017-08-21T03:08:01.404Z,2.63
2017-08-21T03:10:27.770Z,2.73
2017-08-21T03:12:54.131Z,2.63
2017-08-21T03:15:20.532Z,3.50
2017-08-21T03:17:46.907Z,3.20
2017-08-21T03:20:13.232Z,3.27
2017-08-21T03:22:39.598Z,2.60
2017-08-21T03:25:05.913Z,2.40
2017-08-21T03:27:32.239Z,2.90
2017-08-21T03:29:58.600Z,2.53
2017-08-21T03:32:24.936Z,2.17
2017-08-21T03:34:51.331Z,2.67
2017-08-21T03:37:17.634Z,3.30
2017-08-21T03:39:43.949Z,2.60
2017-08-21T03:42:10.389Z,2.67
2017-08-21T03:44:36.800Z,2.70
2017-08-21T03:47:03.129Z,2.80
2017-08-21T03:49:29.547Z,3.17
2017-08-21T03:51:55.916Z,2.67
2017-08-21T03:54:22.221Z,2.90
2017-08-21T03:56:48.638Z,2.90
2017-08-21T03:59:15.121Z,3.37
2017-08-21T04:01:41.436Z,2.83
2017-08-21T04:04:07.877Z,2.73
2017-08-21T04:06:34.293Z,2.90
2017-08-21T04:09:00.700Z,3.10
2017-08-21T04:11:27.100Z,3.33
2017-08-21T04:13:53.448Z,4.10
2017-08-21T04:18:52.931Z,3.03
2017-08-21T04:21:19.300Z,2.90
2017-08-21T04:23:46.782Z,3.17
2017-08-21T04:26:13.201Z,2.97
2017-08-21T04:28:39.535Z,4.10
2017-08-21T04:31:05.931Z,3.30
2017-08-21T04:33:32.288Z,3.07
2017-08-21T04:35:58.648Z,3.10
2017-08-21T04:38:25.001Z,2.90
2017-08-21T04:40:51.408Z,2.90
2017-08-21T04:43:17.941Z,3.10
2017-08-21T04:45:44.362Z,3.70
2017-08-21T04:48:10.709Z,3.20
2017-08-21T04:50:37.152Z,2.67
2017-08-21T04:53:03.484Z,2.87
2017-08-21T04:55:29.843Z,3.20
2017-08-21T04:57:56.156Z,2.93
2017-08-21T05:00:22.464Z,2.93
2017-08-21T05:02:48.843Z,3.03
2017-08-21T05:05:15.184Z,2.93
2017-08-21T05:07:41.526Z,2.60
2017-08-21T05:10:07.944Z,3.10
2017-08-21T05:12:34.264Z,2.83
2017-08-21T05:15:00.584Z,2.90
2017-08-21T05:17:26.940Z,2.73
2017-08-21T05:19:53.261Z,2.77
2017-08-21T05:22:19.623Z,3.10
2017-08-21T05:24:46.005Z,3.20
2017-08-21T05:27:12.345Z,3.47
2017-08-21T05:29:38.697Z,2.77
2017-08-21T05:32:05.065Z,3.07
2017-08-21T05:34:31.450Z,2.97
2017-08-21T05:36:57.807Z,3.33
2017-08-21T05:39:24.188Z,3.20
2017-08-21T05:41:50.576Z,3.30
2017-08-21T05:44:16.973Z,3.70
2017-08-21T05:46:43.334Z,3.33
2017-08-21T05:49:09.717Z,2.83
2017-08-21T05:51:36.096Z,3.23
2017-08-21T05:54:02.469Z,3.23
2017-08-21T05:56:28.789Z,3.63
2017-08-21T05:58:55.186Z,3.20
2017-08-21T06:01:21.549Z,3.30
2017-08-21T06:03:47.865Z,3.13
2017-08-21T06:06:14.268Z,2.63
2017-08-21T06:08:40.614Z,3.30
2017-08-21T06:11:07.914Z,3.33
2017-08-21T06:13:34.447Z,3.03
2017-08-21T06:16:00.764Z,2.90
2017-08-21T06:18:27.135Z,2.77
2017-08-21T06:20:53.445Z,3.27
2017-08-21T06:23:19.951Z,3.50
2017-08-21T06:25:46.309Z,3.00
2017-08-21T06:28:12.613Z,3.20
2017-08-21T06:30:38.920Z,3.57
2017-08-21T06:33:05.288Z,3.33
2017-08-21T06:35:31.635Z,3.10
2017-08-21T06:37:58.000Z,3.00
2017-08-21T06:40:24.423Z,3.13
2017-08-21T06:42:50.808Z,3.77
2017-08-21T06:45:17.154Z,3.90
2017-08-21T06:47:44.273Z,3.43
2017-08-21T06:50:10.627Z,3.40
2017-08-21T06:52:36.978Z,3.50
2017-08-21T06:55:03.615Z,3.90
2017-08-21T06:57:29.956Z,3.60
2017-08-21T06:59:56.300Z,3.40
2017-08-21T07:02:22.604Z,3.53
2017-08-21T07:04:48.978Z,3.50
2017-08-21T07:07:15.300Z,4.20
2017-08-21T07:09:41.717Z,3.60
2017-08-21T07:12:08.192Z,3.73
2017-08-21T07:14:34.529Z,3.40
2017-08-21T07:17:00.900Z,3.60
2017-08-21T07:19:34.219Z,3.50
2017-08-21T07:22:00.575Z,3.50
2017-08-21T07:24:26.976Z,3.20
2017-08-21T07:26:53.299Z,3.10
2017-08-21T07:29:19.695Z,3.13
2017-08-21T07:31:46.020Z,3.33
2017-08-21T07:34:12.437Z,3.53
2017-08-21T07:36:38.833Z,3.10
2017-08-21T07:39:05.248Z,3.33
2017-08-21T07:41:31.592Z,2.87
2017-08-21T07:43:57.901Z,2.63
2017-08-21T07:46:24.291Z,3.20
2017-08-21T07:48:50.660Z,2.47
2017-08-21T07:51:17.060Z,3.10
2017-08-21T07:53:43.387Z,2.70
2017-08-21T07:56:09.789Z,3.50
2017-08-21T07:58:36.259Z,2.80
2017-08-21T08:01:09.527Z,2.40
2017-08-21T08:03:35.953Z,2.80
2017-08-21T08:06:02.263Z,2.30
2017-08-21T08:08:28.625Z,3.83
2017-08-21T08:10:55.903Z,2.70
2017-08-21T08:13:22.300Z,2.70
2017-08-21T08:15:48.699Z,2.90
2017-08-21T08:18:15.011Z,2.73
2017-08-21T08:20:41.364Z,3.20
2017-08-21T08:23:07.712Z,3.33
2017-08-21T08:25:34.083Z,2.43
2017-08-21T08:28:00.468Z,3.70
2017-08-21T08:30:26.785Z,2.97
2017-08-21T08:32:53.147Z,2.43
2017-08-21T08:35:19.536Z,2.33
2017-08-21T08:37:45.859Z,2.43
2017-08-21T08:40:12.268Z,2.07
2017-08-21T08:42:38.641Z,2.23
2017-08-21T08:45:05.016Z,2.23
2017-08-21T08:47:31.336Z,2.50
2017-08-21T08:49:57.700Z,3.07
2017-08-21T08:52:24.061Z,2.90
2017-08-21T08:54:50.447Z,3.07
2017-08-21T08:57:17.158Z,2.50
2017-08-21T08:59:43.527Z,2.50
2017-08-21T09:02:09.849Z,2.00
2017-08-21T09:04:36.226Z,2.20
2017-08-21T09:07:02.584Z,1.50
2017-08-21T09:09:28.949Z,1.80
2017-08-21T09:11:55.338Z,2.40
2017-08-21T09:14:21.657Z,1.70
2017-08-21T09:16:48.069Z,5.03
2017-08-21T09:19:14.462Z,2.50
2017-08-21T09:21:40.766Z,1.90
2017-08-21T09:24:07.071Z,2.20
2017-08-21T09:26:33.433Z,2.00
2017-08-21T09:28:59.777Z,1.97
2017-08-21T09:31:26.221Z,1.90
2017-08-21T09:33:52.604Z,2.33
2017-08-21T09:36:18.969Z,2.10
2017-08-21T09:38:45.336Z,1.83
2017-08-21T09:41:11.662Z,2.10
2017-08-21T09:43:37.983Z,1.60
2017-08-21T09:46:04.335Z,1.93
2017-08-21T09:48:30.708Z,2.40
2017-08-21T09:50:57.097Z,2.60
2017-08-21T09:53:23.431Z,2.00
2017-08-21T09:55:49.791Z,1.80
2017-08-21T09:58:16.134Z,1.97
2017-08-21T10:00:42.578Z,2.03
2017-08-21T10:03:08.918Z,1.93
2017-08-21T10:05:35.293Z,1.60
2017-08-21T10:08:01.608Z,2.10
2017-08-21T10:10:27.985Z,2.07
2017-08-21T10:12:54.707Z,2.00
2017-08-21T10:15:21.064Z,1.80
2017-08-21T10:17:47.484Z,1.90
2017-08-21T10:20:14.588Z,1.93
2017-08-21T10:22:40.909Z,1.90
2017-08-21T10:25:07.293Z,1.87
2017-08-21T10:27:33.652Z,1.60
2017-08-21T10:30:00.021Z,1.80
2017-08-21T10:32:26.337Z,1.83
2017-08-21T10:34:52.674Z,2.40
2017-08-21T10:37:19.093Z,1.87
2017-08-21T10:39:45.415Z,1.80
2017-08-21T10:42:11.810Z,1.77
2017-08-21T10:44:38.220Z,2.07
2017-08-21T10:47:04.529Z,1.77
2017-08-21T10:49:30.936Z,1.70
2017-08-21T10:51:57.356Z,1.83
2017-08-21T10:54:23.734Z,1.53
2017-08-21T10:56:50.050Z,2.30
2017-08-21T10:59:17.470Z,2.70
2017-08-21T11:01:43.820Z,1.87
2017-08-21T11:04:10.180Z,1.60
2017-08-21T11:06:36.564Z,2.40
2017-08-21T11:09:02.959Z,1.63
2017-08-21T11:11:29.329Z,2.20
2017-08-21T11:13:55.643Z,1.80
2017-08-21T11:16:21.985Z,2.10
2017-08-21T11:18:48.340Z,1.87
2017-08-21T11:21:14.788Z,1.70
2017-08-21T11:23:41.112Z,2.17
2017-08-21T11:26:07.708Z,2.17
2017-08-21T11:28:34.096Z,1.87
2017-08-21T11:31:00.556Z,1.90
2017-08-21T11:33:26.884Z,1.93
2017-08-21T11:35:53.276Z,1.67
2017-08-21T11:38:19.771Z,1.80
2017-08-21T11:40:46.167Z,2.17
2017-08-21T11:43:12.534Z,1.90
2017-08-21T11:45:38.876Z,2.00
2017-08-21T11:48:05.349Z,2.33
2017-08-21T11:50:31.693Z,2.20
2017-08-21T11:52:58.282Z,2.23
2017-08-21T11:55:24.651Z,2.33
2017-08-21T11:57:50.997Z,2.10
2017-08-21T12:00:17.380Z,1.87
2017-08-21T12:02:43.714Z,2.50
2017-08-21T12:05:11.127Z,2.03
2017-08-21T12:07:37.492Z,1.80
2017-08-21T12:10:04.163Z,1.53
2017-08-21T12:12:30.597Z,1.80
2017-08-21T12:14:56.991Z,1.77
2017-08-21T12:17:23.356Z,2.07
2017-08-21T12:19:49.728Z,2.00
2017-08-21T12:22:16.101Z,2.03
2017-08-21T12:24:42.552Z,2.07
2017-08-21T12:27:10.078Z,2.10
2017-08-21T12:29:36.691Z,2.30
2017-08-21T12:32:03.436Z,1.70
2017-08-21T12:34:30.098Z,2.20
2017-08-21T12:36:56.564Z,2.37
2017-08-21T12:39:23.325Z,2.43
2017-08-21T12:41:49.900Z,2.10
2017-08-21T12:44:16.420Z,1.80
2017-08-21T12:46:42.929Z,2.30
2017-08-21T12:49:09.297Z,2.10
2017-08-21T12:51:35.765Z,1.87
2017-08-21T12:54:02.468Z,5.30
2017-08-21T12:56:28.816Z,2.63
2017-08-21T12:58:55.214Z,2.00
2017-08-21T13:01:21.545Z,1.83
2017-08-21T13:03:47.888Z,2.13
2017-08-21T13:06:14.263Z,1.73
2017-08-21T13:08:40.645Z,1.63
2017-08-21T13:11:07.139Z,2.13
2017-08-21T13:13:33.550Z,1.73
2017-08-21T13:16:00.038Z,1.77
2017-08-21T13:18:26.461Z,1.90
2017-08-21T13:20:52.912Z,2.00
2017-08-21T13:23:19.304Z,1.90
2017-08-21T13:25:45.660Z,2.03
2017-08-21T13:28:12.067Z,2.50
2017-08-21T13:30:38.452Z,1.70
2017-08-21T13:33:04.780Z,2.07
2017-08-21T13:35:31.136Z,1.80
2017-08-21T13:37:57.551Z,1.87
2017-08-21T13:40:23.917Z,3.70
2017-08-21T13:42:50.241Z,2.57
2017-08-21T13:45:16.652Z,2.20
2017-08-21T13:47:43.017Z,1.83
2017-08-21T13:50:09.412Z,2.53
2017-08-21T13:52:35.735Z,2.00
2017-08-21T13:55:02.177Z,1.63
2017-08-21T13:57:28.529Z,1.77
2017-08-21T13:59:54.932Z,1.87
2017-08-21T14:02:21.472Z,2.20
2017-08-21T14:04:47.807Z,2.30
2017-08-21T14:07:14.240Z,2.07
2017-08-21T14:09:40.628Z,1.80
2017-08-21T14:12:07.082Z,1.90
2017-08-21T14:14:33.457Z,2.00
2017-08-21T14:16:59.827Z,1.70
2017-08-21T14:19:26.198Z,2.37
2017-08-21T14:21:52.559Z,1.87
2017-08-21T14:24:18.878Z,1.70
2017-08-21T14:26:45.195Z,1.40
2017-08-21T14:29:11.581Z,2.20
2017-08-21T14:31:37.949Z,2.07
2017-08-21T14:34:04.391Z,2.87
2017-08-21T14:36:30.712Z,2.10
2017-08-21T14:38:57.065Z,2.23
2017-08-21T14:41:23.425Z,1.50
2017-08-21T14:43:50.237Z,2.17
2017-08-21T14:46:16.628Z,2.00
2017-08-21T14:48:43.052Z,2.27
2017-08-21T14:51:09.396Z,1.87
2017-08-21T14:53:35.780Z,2.10
2017-08-21T14:56:02.149Z,2.10
2017-08-21T14:58:28.521Z,1.77
2017-08-21T15:00:55.119Z,2.07
2017-08-21T15:03:21.479Z,1.60
2017-08-21T15:05:47.804Z,1.60
2017-08-21T15:08:14.316Z,1.77
2017-08-21T15:10:40.955Z,2.60
2017-08-21T15:13:07.497Z,2.07
2017-08-21T15:15:33.872Z,2.47
2017-08-21T15:18:00.251Z,2.30
2017-08-21T15:20:26.621Z,2.47
2017-08-21T15:22:52.994Z,2.07
2017-08-21T15:25:19.318Z,3.00
2017-08-21T15:27:45.637Z,2.50
2017-08-21T15:30:12.045Z,2.40
2017-08-21T15:32:38.380Z,2.40
2017-08-21T15:35:04.750Z,2.20
2017-08-21T15:37:31.543Z,1.90
2017-08-21T15:39:58.132Z,1.93
2017-08-21T15:42:24.930Z,2.10
2017-08-21T15:44:51.657Z,1.80
2017-08-21T15:47:18.382Z,2.10
2017-08-21T15:49:44.930Z,2.17
2017-08-21T15:52:11.447Z,1.73
2017-08-21T15:54:38.149Z,2.00
2017-08-21T15:57:04.720Z,2.03
2017-08-21T15:59:31.083Z,1.70
2017-08-21T16:01:57.718Z,2.90
2017-08-21T16:04:24.328Z,1.80
2017-08-21T16:06:50.910Z,1.93
2017-08-21T16:09:17.279Z,2.00
2017-08-21T16:11:43.686Z,1.80
2017-08-21T16:14:10.054Z,2.50
2017-08-21T16:16:36.414Z,1.93
2017-08-21T16:19:02.854Z,2.27
2017-08-21T16:21:29.173Z,2.10
2017-08-21T16:23:55.525Z,1.93
2017-08-21T16:26:21.897Z,2.10
2017-08-21T16:28:48.229Z,1.70
2017-08-21T16:31:14.657Z,1.90
2017-08-21T16:33:41.071Z,1.73
2017-08-21T16:36:07.493Z,1.90
2017-08-21T16:38:33.914Z,3.10
2017-08-21T16:41:00.288Z,2.53
2017-08-21T16:43:26.650Z,2.50
2017-08-21T16:45:53.016Z,2.00
2017-08-21T16:48:19.332Z,2.30
2017-08-21T16:50:45.700Z,2.17
2017-08-21T16:53:12.023Z,2.30
2017-08-21T16:55:38.473Z,2.00
2017-08-21T16:58:04.869Z,1.87
2017-08-21T17:00:31.231Z,1.97
2017-08-21T17:02:57.707Z,2.03
2017-08-21T17:05:24.069Z,1.97
2017-08-21T17:07:50.529Z,2.10
2017-08-21T17:10:17.012Z,2.00
2017-08-21T17:12:43.336Z,2.27
2017-08-21T17:15:09.773Z,1.80
2017-08-21T17:17:36.107Z,2.00
2017-08-21T17:20:02.512Z,1.97
2017-08-21T17:22:28.868Z,2.27
2017-08-21T17:24:55.236Z,2.13
2017-08-21T17:27:21.582Z,1.80
2017-08-21T17:29:47.980Z,1.70
2017-08-21T17:32:14.340Z,2.50
2017-08-21T17:34:40.753Z,2.00
2017-08-21T17:37:07.140Z,1.90
2017-08-21T17:39:33.619Z,2.23
2017-08-21T17:41:59.964Z,2.47
2017-08-21T17:44:26.282Z,2.40
2017-08-21T17:46:52.749Z,2.60
2017-08-21T17:49:19.075Z,2.67
2017-08-21T17:51:46.246Z,2.30
2017-08-21T17:54:12.595Z,2.23
2017-08-21T17:56:38.961Z,2.50
2017-08-21T17:59:05.402Z,2.73
2017-08-21T18:01:31.780Z,2.80
2017-08-21T18:03:59.153Z,2.13
2017-08-21T18:06:25.526Z,3.10
2017-08-21T18:08:51.903Z,3.30
2017-08-21T18:11:18.334Z,2.70
2017-08-21T18:13:44.642Z,2.83
2017-08-21T18:16:11.163Z,3.20
2017-08-21T18:18:37.606Z,2.90
2017-08-21T18:21:03.919Z,2.83
2017-08-21T18:23:30.276Z,3.80
2017-08-21T18:25:56.656Z,4.10
2017-08-21T18:28:23.039Z,3.67
2017-08-21T18:30:49.348Z,4.17
2017-08-21T18:33:15.912Z,3.67
2017-08-21T18:35:42.341Z,3.97
2017-08-21T18:38:08.661Z,3.10
2017-08-21T18:40:34.984Z,3.30
2017-08-21T18:43:01.376Z,3.03
2017-08-21T18:45:27.700Z,2.47
2017-08-21T18:47:54.201Z,3.17
2017-08-21T18:50:20.610Z,2.37
2017-08-21T18:52:46.966Z,2.60
2017-08-21T18:55:13.338Z,2.90
2017-08-21T18:57:39.704Z,3.30
2017-08-21T19:00:06.305Z,4.80
2017-08-21T19:02:32.699Z,7.67
2017-08-21T19:04:59.077Z,9.13
2017-08-21T19:07:25.451Z,10.00
2017-08-21T19:09:52.592Z,12.40
2017-08-21T19:12:19.058Z,12.20
2017-08-21T19:14:45.511Z,10.43
2017-08-21T19:17:12.063Z,7.23
2017-08-21T19:19:38.434Z,7.93
2017-08-21T19:22:04.777Z,7.70
2017-08-21T19:24:31.288Z,10.00
2017-08-21T19:26:57.607Z,8.37
2017-08-21T19:29:23.928Z,8.03
2017-08-21T19:31:50.349Z,6.50
2017-08-21T19:34:16.764Z,9.90
2017-08-21T19:36:43.119Z,8.10
2017-08-21T19:39:09.510Z,7.20
2017-08-21T19:41:35.930Z,6.03
2017-08-21T19:44:02.327Z,4.20
2017-08-21T19:46:28.770Z,4.90
2017-08-21T19:48:55.080Z,4.57
2017-08-21T19:51:21.730Z,4.17
2017-08-21T19:53:48.256Z,2.77
2017-08-21T19:56:14.640Z,2.20
2017-08-21T19:58:41.353Z,2.70
2017-08-21T20:01:07.772Z,2.83
2017-08-21T20:03:34.146Z,2.90
2017-08-21T20:06:00.604Z,2.63
2017-08-21T20:08:27.126Z,2.70
2017-08-21T20:10:53.854Z,2.40
2017-08-21T20:13:20.257Z,2.93
2017-08-21T20:15:46.628Z,2.27
2017-08-21T20:18:12.948Z,2.13
2017-08-21T20:20:39.327Z,2.30
2017-08-21T20:23:05.707Z,2.43
2017-08-21T20:25:32.055Z,2.50
2017-08-21T20:27:58.455Z,2.20
2017-08-21T20:30:24.965Z,2.57
2017-08-21T20:32:51.709Z,2.77
2017-08-21T20:35:18.400Z,2.70
2017-08-21T20:37:44.819Z,3.03
2017-08-21T20:40:11.163Z,2.93
2017-08-21T20:42:37.598Z,2.60
2017-08-21T20:45:03.974Z,2.30
2017-08-21T20:47:30.347Z,3.80
2017-08-21T20:49:56.666Z,4.80
2017-08-21T20:52:23.797Z,5.30
2017-08-21T20:54:50.136Z,5.80
2017-08-21T20:57:16.974Z,7.20
2017-08-21T20:59:43.360Z,6.63
2017-08-21T21:02:09.715Z,7.10
2017-08-21T21:04:36.069Z,7.90
2017-08-21T21:07:02.440Z,9.83
2017-08-21T21:09:28.792Z,14.97
2017-08-21T21:11:55.159Z,14.40
2017-08-21T21:14:21.519Z,11.27
2017-08-21T21:16:47.942Z,5.80
2017-08-21T21:19:14.340Z,6.90
2017-08-21T21:21:40.672Z,13.60
2017-08-21T21:24:07.322Z,8.20
2017-08-21T21:26:33.914Z,4.33
2017-08-21T21:29:00.227Z,4.77
2017-08-21T21:31:26.568Z,3.40
2017-08-21T21:33:52.948Z,5.30
2017-08-21T21:36:19.343Z,5.17
2017-08-21T21:38:45.727Z,3.77
2017-08-21T21:41:12.069Z,3.90
2017-08-21T21:43:38.441Z,4.27
2017-08-21T21:46:04.819Z,4.23
2017-08-21T21:48:31.184Z,4.20
2017-08-21T21:50:57.608Z,6.17
2017-08-21T21:53:24.022Z,11.07
2017-08-21T21:55:50.407Z,13.07
2017-08-21T21:58:17.174Z,16.40
2017-08-21T22:00:43.594Z,16.03
2017-08-21T22:03:09.934Z,18.40
2017-08-21T22:05:36.243Z,19.97
2017-08-21T22:08:02.861Z,13.47
2017-08-21T22:10:29.224Z,45.03
2017-08-21T22:12:55.589Z,39.57
2017-08-21T22:15:21.946Z,29.07
2017-08-21T22:17:48.270Z,35.03
2017-08-21T22:20:14.714Z,39.07
2017-08-21T22:22:41.097Z,28.93
2017-08-21T22:25:07.425Z,11.47
2017-08-21T22:27:33.765Z,11.83
2017-08-21T22:30:00.161Z,30.60
2017-08-21T22:32:26.469Z,26.73
2017-08-21T22:34:52.822Z,13.47
2017-08-21T22:37:19.241Z,6.73
2017-08-21T22:39:45.558Z,4.80
2017-08-21T22:42:11.964Z,7.20
2017-08-21T22:44:38.280Z,8.03
2017-08-21T22:47:04.584Z,5.67
2017-08-21T22:49:31.315Z,7.70
2017-08-21T22:51:57.634Z,11.93
2017-08-21T22:54:24.752Z,22.30
2017-08-21T22:56:51.139Z,20.70
2017-08-21T22:59:17.552Z,11.30
2017-08-21T23:01:49.806Z,8.60
2017-08-21T23:04:16.143Z,6.70
2017-08-21T23:06:42.745Z,6.63
2017-08-21T23:09:09.058Z,6.00
2017-08-21T23:11:35.421Z,6.10
2017-08-21T23:14:01.736Z,6.03
2017-08-21T23:16:28.057Z,7.13
2017-08-21T23:18:54.412Z,6.80
2017-08-21T23:21:20.960Z,6.20
2017-08-21T23:23:47.355Z,6.97
2017-08-21T23:26:13.672Z,7.37
2017-08-21T23:28:40.094Z,7.30
2017-08-21T23:31:06.519Z,6.10
2017-08-21T23:33:32.842Z,4.77
2017-08-21T23:35:59.307Z,4.53
2017-08-21T23:38:25.715Z,4.70
2017-08-21T23:40:52.311Z,3.90
2017-08-21T23:43:18.813Z,3.73
2017-08-21T23:45:45.165Z,4.53
2017-08-21T23:48:11.480Z,4.03
2017-08-21T23:50:37.852Z,3.70
2017-08-21T23:53:04.180Z,3.37
2017-08-21T23:55:30.572Z,3.00
2017-08-21T23:57:56.981Z,2.47
